Dades de l'estació automàtica Castellnou de Seana

?
?
Resum diari 22:30 TU
Dades diàries de l'estació meteorològica
Temperatura mitjana 20.0 °C
Temperatura màxima 27.9 °C 14:12 TU
Temperatura mínima 12.5 °C 6:00 TU
Humitat relativa mitjana 68%
Precipitació acumulada 0.0 mm
Ratxa màxima del vent (10 m) 29.2 km/h - 245º 13:35 TU
Pressió atmosfèrica mitjana 1011.8 hPa
Irradiació solar global 17.8 MJ/m2

El tram horari està expressat en Temps Universal (TU). Cal sumar una hora en horari d'hivern i dues en horari d'estiu per passar a l'hora oficial.

Castellnou de Seana

Metadades estació meteorol´gica
Municipi Castellnou de Seana
Comarca Pla d'Urgell
Altitud 264 m
Data alta 16.12.1995
Estat actual Operativa
Dades de període
Període
TU
TM
°C
TX
°C
TN
°C
HRM
%
PPT
mm
VVM (10 m)
km/h
DVM (10 m)
graus
VVX (10 m)
km/h
PM
hPa
RS
W/m2
00:00 - 00:30 15.5 15.6 15.3 87 0.0 8.6 104 12.6 1013.3 0
00:30 - 01:00 15.5 15.7 15.2 87 0.0 7.2 139 11.5 1013.2 0
01:00 - 01:30 14.8 15.1 14.6 90 0.0 4.7 147 9.4 1013.3 0
01:30 - 02:00 15.1 15.3 14.8 90 0.0 3.6 128 7.2 1012.8 0
02:00 - 02:30 15.0 15.4 14.4 91 0.0 4.7 47 8.6 1012.7 0
02:30 - 03:00 14.1 14.3 13.9 93 0.0 5.8 80 8.6 1012.7 0
03:00 - 03:30 13.8 13.9 13.6 93 0.0 6.1 64 8.6 1012.8 0
03:30 - 04:00 13.5 13.7 13.4 94 0.0 4.7 77 6.5 1012.8 0
04:00 - 04:30 13.5 13.7 13.3 93 0.0 4.3 91 7.9 1012.7 0
04:30 - 05:00 13.0 13.3 12.7 95 0.0 4.0 99 6.5 1012.9 0
05:00 - 05:30 12.8 13.0 12.7 95 0.0 5.8 117 8.3 1013.0 0
05:30 - 06:00 12.7 12.9 12.5 95 0.0 4.3 123 6.1 1013.1 4
06:00 - 06:30 13.1 14.2 12.5 93 0.0 2.2 97 4.3 1013.2 46
06:30 - 07:00 14.9 15.3 14.4 86 0.0 1.4 73 4.3 1013.0 127
07:00 - 07:30 16.1 17.1 15.3 83 0.0 3.2 62 5.0 1012.9 220
07:30 - 08:00 17.9 18.8 17.1 76 0.0 2.9 94 5.4 1012.8 314
08:00 - 08:30 19.7 20.6 18.8 71 0.0 1.8 124 4.7 1012.7 401
08:30 - 09:00 21.3 22.0 20.7 64 0.0 2.5 144 6.1 1012.5 488
09:00 - 09:30 23.3 23.8 22.2 57 0.0 5.8 246 13.7 1012.5 565
09:30 - 10:00 23.9 24.3 23.5 55 0.0 7.2 269 16.2 1012.5 625
10:00 - 10:30 24.5 24.8 24.1 54 0.0 10.8 262 20.9 1012.3 675
10:30 - 11:00 24.7 25.3 24.3 52 0.0 11.5 273 20.9 1012.1 718
11:00 - 11:30 25.7 26.3 25.2 47 0.0 10.1 272 21.2 1011.7 741
11:30 - 12:00 26.1 26.4 25.6 43 0.0 12.2 274 22.3 1011.4 750
12:00 - 12:30 26.8 27.1 26.3 40 0.0 12.2 277 20.5 1011.0 757
12:30 - 13:00 27.3 27.5 27.0 38 0.0 12.6 260 22.3 1010.6 738
13:00 - 13:30 27.5 27.8 27.2 38 0.0 13.0 262 23.8 1010.3 697
13:30 - 14:00 27.5 27.8 27.1 38 0.0 15.8 273 29.2 1010.1 640
14:00 - 14:30 26.9 27.9 25.9 40 0.0 16.6 269 26.6 1010.1 374
14:30 - 15:00 25.4 25.9 25.2 45 0.0 12.6 264 20.5 1010.1 130
15:00 - 15:30 25.6 25.9 25.2 45 0.0 10.8 271 18.4 1009.9 214
15:30 - 16:00 26.4 27.2 25.6 44 0.0 9.7 267 22.7 1009.6 308
16:00 - 16:30 26.4 27.0 25.6 44 0.0 11.9 269 18.4 1009.6 245
16:30 - 17:00 25.7 26.2 24.7 45 0.0 13.3 252 24.1 1009.6 126
17:00 - 17:30 24.1 24.7 23.4 50 0.0 10.8 252 19.8 1009.8 42
17:30 - 18:00 22.4 23.4 21.4 57 0.0 7.2 255 11.2 1010.1 8
18:00 - 18:30 20.7 21.3 20.1 65 0.0 7.2 239 10.1 1010.5 0
18:30 - 19:00 20.0 20.8 19.8 69 0.0 6.8 206 15.1 1011.0 0
19:00 - 19:30 20.3 20.9 19.6 67 0.0 8.3 208 11.9 1011.2 0
19:30 - 20:00 20.0 20.2 19.7 69 0.0 10.1 209 13.3 1011.8 0
20:00 - 20:30 19.9 20.2 19.1 69 0.0 7.2 194 12.2 1011.8 0
20:30 - 21:00 18.8 19.0 18.6 73 0.0 7.6 188 9.0 1012.1 0
21:00 - 21:30 17.9 18.6 17.3 78 0.0 6.1 218 8.3 1012.4 0
21:30 - 22:00 17.3 17.4 17.2 81 0.0 4.3 229 7.2 1012.6 0
22:00 - 22:30 17.0 17.3 16.7 82 0.0 6.8 218 10.1 1012.8 0
22:30 - 23:00 17.0 17.2 16.9 82 0.0 5.0 208 6.8 1012.8 0

Les dades en taronja només han passat un control de qualitat automàtic. Resta pendent la seva validació definitiva.